createdAt,value
2023-11-07T00:00:30.212Z,100842.41
2023-11-07T00:03:17.978Z,100849.56
2023-11-07T00:05:45.430Z,100851.22
2023-11-07T00:08:12.812Z,100853.53
2023-11-07T00:10:39.834Z,100850.75
2023-11-07T00:13:08.593Z,100856.34
2023-11-07T00:15:35.732Z,100847.13
2023-11-07T00:18:03.395Z,100858.19
2023-11-07T00:20:30.525Z,100860.75
2023-11-07T00:22:58.745Z,100859.19
2023-11-07T00:25:26.689Z,100869.94
2023-11-07T00:27:53.848Z,100853.81
2023-11-07T00:30:22.267Z,100869.25
2023-11-07T00:32:50.014Z,100869.38
2023-11-07T00:35:17.354Z,100870.47
2023-11-07T00:37:44.579Z,100874.97
2023-11-07T00:40:13.146Z,100884.44
2023-11-07T00:42:40.351Z,100867.63
2023-11-07T00:45:08.524Z,100889.13
2023-11-07T00:47:38.072Z,100887.16
2023-11-07T00:50:08.241Z,100890.09
2023-11-07T00:52:35.788Z,100895.69
2023-11-07T00:55:03.431Z,100898.47
2023-11-07T00:57:30.745Z,100887.66
2023-11-07T00:59:57.819Z,100886.47
2023-11-07T01:02:25.427Z,100892.94
2023-11-07T01:04:55.165Z,100899.78
2023-11-07T01:07:22.514Z,100896.88
2023-11-07T01:09:49.728Z,100896.88
2023-11-07T01:12:17.020Z,100891.56
2023-11-07T01:14:44.580Z,100893.06
2023-11-07T01:17:12.021Z,100902.69
2023-11-07T01:19:39.114Z,100898.94
2023-11-07T01:22:08.114Z,100894.34
2023-11-07T01:24:35.233Z,100898.66
2023-11-07T01:27:02.616Z,100901.47
2023-11-07T01:29:29.622Z,100911.06
2023-11-07T01:31:56.887Z,100907.25
2023-11-07T01:34:24.014Z,100905.81
2023-11-07T01:36:51.555Z,100906.78
2023-11-07T01:39:20.135Z,100889.56
2023-11-07T01:41:47.502Z,100906.09
2023-11-07T01:44:14.867Z,100920.34
2023-11-07T01:46:42.293Z,100916.72
2023-11-07T01:49:10.276Z,100912.09
2023-11-07T01:51:38.216Z,100900.91
2023-11-07T01:54:06.083Z,100902.00
2023-11-07T01:56:34.751Z,100899.97
2023-11-07T01:59:02.701Z,100894.00
2023-11-07T02:01:34.389Z,100899.78
2023-11-07T02:04:02.645Z,100907.75
2023-11-07T02:06:30.148Z,100898.09
2023-11-07T02:08:57.536Z,100900.75
2023-11-07T02:11:26.059Z,100900.19
2023-11-07T02:13:54.646Z,100900.19
2023-11-07T02:16:22.009Z,100890.56
2023-11-07T02:18:49.274Z,100873.59
2023-11-07T02:21:17.030Z,100899.00
2023-11-07T02:23:45.721Z,100892.84
2023-11-07T02:26:13.041Z,100902.47
2023-11-07T02:28:40.098Z,100900.38
2023-11-07T02:31:07.468Z,100900.72
2023-11-07T02:33:35.212Z,100901.00
2023-11-07T02:36:02.773Z,100903.19
2023-11-07T02:38:30.137Z,100896.69
2023-11-07T02:40:58.883Z,100902.00
2023-11-07T02:43:26.274Z,100898.06
2023-11-07T02:45:54.051Z,100908.31
2023-11-07T02:48:21.562Z,100898.41
2023-11-07T02:50:48.875Z,100907.34
2023-11-07T02:53:16.549Z,100903.84
2023-11-07T02:55:43.897Z,100905.75
2023-11-07T02:58:12.630Z,100903.84
2023-11-07T03:00:40.013Z,100917.59
2023-11-07T03:03:07.251Z,100911.56
2023-11-07T03:05:34.981Z,100910.72
2023-11-07T03:08:03.029Z,100918.09
2023-11-07T03:10:30.421Z,100921.56
2023-11-07T03:12:57.905Z,100923.63
2023-11-07T03:15:26.509Z,100924.72
2023-11-07T03:17:53.603Z,100926.16
2023-11-07T03:20:21.593Z,100937.25
2023-11-07T03:22:48.692Z,100939.22
2023-11-07T03:25:17.903Z,100947.19
2023-11-07T03:27:44.930Z,100933.06
2023-11-07T03:30:12.925Z,100938.72
2023-11-07T03:32:42.437Z,100938.00
2023-11-07T03:35:10.270Z,100936.53
2023-11-07T03:37:38.779Z,100939.53
2023-11-07T03:40:07.588Z,100941.00
2023-11-07T03:42:35.561Z,100936.66
2023-11-07T03:45:03.183Z,100936.34
2023-11-07T03:47:30.937Z,100936.06
2023-11-07T03:50:00.978Z,100939.09
2023-11-07T03:52:28.403Z,100938.63
2023-11-07T03:54:55.813Z,100943.53
2023-11-07T03:57:27.393Z,100932.00
2023-11-07T03:59:56.901Z,100939.69
2023-11-07T04:02:24.587Z,100946.09
2023-11-07T04:04:52.027Z,100945.84
2023-11-07T04:07:23.043Z,100949.69
2023-11-07T04:09:52.805Z,100932.13
2023-11-07T04:12:22.979Z,100938.28
2023-11-07T04:14:51.646Z,100940.19
2023-11-07T04:17:22.884Z,100958.63
2023-11-07T04:19:50.297Z,100957.16
2023-11-07T04:22:17.369Z,100951.66
2023-11-07T04:24:48.833Z,100958.75
2023-11-07T04:27:22.486Z,100945.38
2023-11-07T04:29:52.370Z,100950.91
2023-11-07T04:32:20.043Z,100957.41
2023-11-07T04:34:52.002Z,100949.09
2023-11-07T04:37:30.003Z,100948.84
2023-11-07T04:39:58.884Z,100932.47
2023-11-07T04:42:34.015Z,100956.94
2023-11-07T04:45:03.254Z,100958.75
2023-11-07T04:47:41.300Z,100960.06
2023-11-07T04:50:09.447Z,100964.63
2023-11-07T04:52:36.912Z,100968.25
2023-11-07T04:55:10.783Z,100967.41
2023-11-07T04:57:38.253Z,100968.34
2023-11-07T05:00:07.062Z,100968.81
2023-11-07T05:02:34.902Z,100971.53
2023-11-07T05:05:03.201Z,100971.16
2023-11-07T05:07:31.275Z,100962.97
2023-11-07T05:09:59.760Z,100938.75
2023-11-07T05:12:29.122Z,100973.03
2023-11-07T05:14:56.275Z,100969.88
2023-11-07T05:17:23.768Z,100957.84
2023-11-07T05:19:50.928Z,100964.38
2023-11-07T05:22:18.419Z,100973.28
2023-11-07T05:24:45.525Z,100973.75
2023-11-07T05:27:12.898Z,100974.00
2023-11-07T05:29:42.672Z,101008.06
2023-11-07T05:32:15.838Z,101001.34
2023-11-07T05:34:46.269Z,101000.00
2023-11-07T05:37:14.234Z,100998.03
2023-11-07T05:39:41.304Z,101002.72
2023-11-07T05:42:11.263Z,101012.22
2023-11-07T05:44:45.595Z,101005.69
2023-11-07T05:47:13.336Z,101007.25
2023-11-07T05:49:42.516Z,101013.84
2023-11-07T05:52:20.424Z,101008.69
2023-11-07T05:54:52.112Z,101019.88
2023-11-07T05:57:22.349Z,101021.56
2023-11-07T05:59:51.079Z,101009.81
2023-11-07T06:02:18.453Z,101009.91
2023-11-07T06:04:45.875Z,100995.75
2023-11-07T06:07:13.400Z,101010.69
2023-11-07T06:09:40.834Z,101016.84
2023-11-07T06:12:10.795Z,101018.19
2023-11-07T06:14:39.541Z,101016.25
2023-11-07T06:17:08.803Z,101022.28
2023-11-07T06:19:35.780Z,101014.94
2023-11-07T06:22:03.277Z,101037.34
2023-11-07T06:24:30.621Z,101045.41
2023-11-07T06:26:58.095Z,101039.31
2023-11-07T06:29:26.188Z,101048.47
2023-11-07T06:31:59.565Z,100975.59
2023-11-07T06:34:31.281Z,101040.38
2023-11-07T06:36:58.629Z,101052.50
2023-11-07T06:39:25.534Z,101052.59
2023-11-07T06:41:54.736Z,101056.53
2023-11-07T06:44:22.000Z,101060.75
2023-11-07T06:46:52.538Z,101064.72
2023-11-07T06:49:19.952Z,101077.50
2023-11-07T06:51:48.731Z,101068.03
2023-11-07T06:54:19.491Z,101057.97
2023-11-07T06:56:48.088Z,101059.94
2023-11-07T06:59:15.255Z,101068.09
2023-11-07T07:01:45.433Z,101020.69
2023-11-07T07:04:12.742Z,101015.13
2023-11-07T07:06:41.234Z,101007.16
2023-11-07T07:09:10.080Z,101078.66
2023-11-07T07:11:39.479Z,101070.31
2023-11-07T07:14:07.211Z,101070.59
2023-11-07T07:16:34.563Z,101071.59
2023-11-07T07:19:07.427Z,101065.03
2023-11-07T07:21:39.544Z,101040.13
2023-11-07T07:24:22.528Z,101075.94
2023-11-07T07:26:51.908Z,101013.75
2023-11-07T07:29:18.778Z,101065.88
2023-11-07T07:31:46.116Z,101055.91
2023-11-07T07:34:13.582Z,101073.66
2023-11-07T07:36:48.638Z,101049.53
2023-11-07T07:39:31.183Z,101074.28
2023-11-07T07:42:01.399Z,101072.78
2023-11-07T07:44:28.784Z,101075.28
2023-11-07T07:46:57.918Z,101075.31
2023-11-07T07:49:29.379Z,101039.66
2023-11-07T07:52:01.088Z,101062.97
2023-11-07T07:54:52.915Z,101055.97
2023-11-07T07:57:21.460Z,101060.31
2023-11-07T07:59:48.785Z,101052.56
2023-11-07T08:02:17.644Z,101058.88
2023-11-07T08:04:44.725Z,101047.81
2023-11-07T08:07:18.144Z,101055.41
2023-11-07T08:09:48.299Z,101047.81
2023-11-07T08:12:18.952Z,101061.41
2023-11-07T08:14:48.134Z,101029.53
2023-11-07T08:17:16.439Z,101046.94
2023-11-07T08:19:43.597Z,101057.00
2023-11-07T08:22:12.080Z,101011.63
2023-11-07T08:24:39.974Z,101052.22
2023-11-07T08:27:09.159Z,101053.56
2023-11-07T08:29:36.125Z,101045.72
2023-11-07T08:32:07.996Z,101043.06
2023-11-07T08:34:35.617Z,101030.94
2023-11-07T08:37:09.240Z,101049.97
2023-11-07T08:39:42.130Z,101037.03
2023-11-07T08:42:12.015Z,101043.22
2023-11-07T08:44:40.127Z,101046.81
2023-11-07T08:47:07.782Z,101043.09
2023-11-07T08:49:35.895Z,101021.88
2023-11-07T08:52:05.979Z,101045.56
2023-11-07T08:54:37.846Z,101020.56
2023-11-07T08:57:05.904Z,101009.91
2023-11-07T08:59:37.350Z,101040.59
2023-11-07T09:02:04.962Z,101032.69
2023-11-07T09:04:32.022Z,101029.19
2023-11-07T09:06:59.905Z,100997.84
2023-11-07T09:09:30.692Z,101025.31
2023-11-07T09:11:58.755Z,100982.81
2023-11-07T09:14:26.232Z,101019.31
2023-11-07T09:16:54.942Z,101011.81
2023-11-07T09:19:22.035Z,100975.00
2023-11-07T09:21:49.432Z,101010.88
2023-11-07T09:24:16.971Z,100956.47
2023-11-07T09:26:44.842Z,101025.03
2023-11-07T09:29:12.099Z,100974.00
2023-11-07T09:31:39.644Z,101018.78
2023-11-07T09:34:10.302Z,101005.25
2023-11-07T09:39:22.618Z,100999.06
2023-11-07T09:41:52.256Z,101000.84
2023-11-07T09:44:21.985Z,100923.63
2023-11-07T09:46:55.515Z,100993.50
2023-11-07T09:49:42.236Z,100917.25
2023-11-07T09:52:12.194Z,100965.97
2023-11-07T09:54:42.162Z,100910.47
2023-11-07T09:57:10.336Z,100967.19
2023-11-07T09:59:41.145Z,100938.19
2023-11-07T10:02:09.449Z,100964.00
2023-11-07T10:04:37.819Z,100963.81
2023-11-07T10:07:06.559Z,100921.25
2023-11-07T10:09:35.289Z,100952.31
2023-11-07T10:12:02.528Z,100947.63
2023-11-07T10:14:34.224Z,100942.41
2023-11-07T10:17:05.472Z,100940.31
2023-11-07T10:19:33.694Z,100922.69
2023-11-07T10:22:07.858Z,100870.81
2023-11-07T10:24:44.015Z,100930.56
2023-11-07T10:27:12.285Z,100920.78
2023-11-07T10:32:17.953Z,100869.38
2023-11-07T10:34:45.262Z,100914.97
2023-11-07T10:37:19.218Z,100916.38
2023-11-07T10:39:57.033Z,100912.50
2023-11-07T10:42:24.033Z,100910.13
2023-11-07T10:45:01.282Z,100896.03
2023-11-07T10:47:37.003Z,100862.19
2023-11-07T10:50:05.300Z,100870.75
2023-11-07T10:52:33.968Z,100899.63
2023-11-07T10:55:04.571Z,100897.91
2023-11-07T10:57:37.267Z,100854.00
2023-11-07T11:00:13.766Z,100894.88
2023-11-07T11:02:43.087Z,100828.38
2023-11-07T11:05:12.923Z,100890.22
2023-11-07T11:07:56.794Z,100899.41
2023-11-07T11:10:29.417Z,100901.50
2023-11-07T11:12:57.484Z,100882.00
2023-11-07T11:15:25.902Z,100896.44
2023-11-07T11:17:59.259Z,100890.34
2023-11-07T11:20:35.952Z,100882.25
2023-11-07T11:23:14.707Z,100877.50
2023-11-07T11:26:01.597Z,100859.41
2023-11-07T11:28:38.648Z,100862.59
2023-11-07T11:31:06.795Z,100865.38
2023-11-07T11:33:37.444Z,100862.81
2023-11-07T11:36:33.648Z,100852.78
2023-11-07T11:39:02.399Z,100855.66
2023-11-07T11:41:47.185Z,100855.47
2023-11-07T11:44:16.376Z,100855.81
2023-11-07T11:46:45.140Z,100845.78
2023-11-07T11:49:17.996Z,100858.41
2023-11-07T11:51:49.605Z,100864.25
2023-11-07T11:54:53.479Z,100865.47
2023-11-07T11:57:20.856Z,100861.97
2023-11-07T11:59:58.247Z,100854.97
2023-11-07T12:02:39.946Z,100822.34
2023-11-07T12:05:18.166Z,100848.63
2023-11-07T12:07:46.964Z,100840.88
2023-11-07T12:10:18.284Z,100831.91
2023-11-07T12:12:56.642Z,100786.75
2023-11-07T12:15:26.981Z,100808.63
2023-11-07T12:17:55.336Z,100811.25
2023-11-07T12:20:22.424Z,100818.25
2023-11-07T12:22:50.573Z,100810.34
2023-11-07T12:25:21.658Z,100815.28
2023-11-07T12:28:11.928Z,100802.84
2023-11-07T12:30:38.747Z,100795.06
2023-11-07T12:33:10.056Z,100778.19
2023-11-07T12:35:38.327Z,100787.28
2023-11-07T12:38:08.426Z,100793.72
2023-11-07T12:40:38.083Z,100779.94
2023-11-07T12:43:08.454Z,100782.91
2023-11-07T12:45:40.325Z,100789.94
2023-11-07T12:48:13.355Z,100775.72
2023-11-07T12:50:59.577Z,100771.59
2023-11-07T12:53:27.180Z,100782.00
2023-11-07T12:55:55.994Z,100783.84
2023-11-07T12:58:30.963Z,100782.59
2023-11-07T13:00:59.856Z,100782.13
2023-11-07T13:03:30.093Z,100796.44
2023-11-07T13:05:59.322Z,100788.78
2023-11-07T13:08:28.743Z,100772.84
2023-11-07T13:11:13.667Z,100750.72
2023-11-07T13:13:43.082Z,100772.41
2023-11-07T13:16:10.475Z,100773.88
2023-11-07T13:18:38.634Z,100770.97
2023-11-07T13:21:07.195Z,100750.75
2023-11-07T13:23:34.892Z,100748.56
2023-11-07T13:26:02.239Z,100744.50
2023-11-07T13:28:30.939Z,100746.25
2023-11-07T13:30:57.984Z,100732.63
2023-11-07T13:33:25.639Z,100753.69
2023-11-07T13:35:52.786Z,100733.72
2023-11-07T13:38:22.654Z,100738.06
2023-11-07T13:40:49.748Z,100745.69
2023-11-07T13:43:17.416Z,100745.53
2023-11-07T13:45:48.995Z,100745.38
2023-11-07T13:48:20.843Z,100758.75
2023-11-07T13:50:48.233Z,100766.19
2023-11-07T13:53:16.889Z,100767.84
2023-11-07T13:55:46.807Z,100761.84
2023-11-07T13:58:15.630Z,100754.91
2023-11-07T14:00:47.298Z,100757.50
2023-11-07T14:03:15.136Z,100750.75
2023-11-07T14:05:43.072Z,100768.59
2023-11-07T14:08:10.537Z,100762.94
2023-11-07T14:10:38.742Z,100758.88
2023-11-07T14:13:06.289Z,100753.41
2023-11-07T14:15:34.359Z,100746.63
2023-11-07T14:18:15.964Z,100740.78
2023-11-07T14:20:48.866Z,100741.13
2023-11-07T14:23:16.994Z,100731.22
2023-11-07T14:25:45.262Z,100737.34
2023-11-07T14:28:13.932Z,100727.69
2023-11-07T14:30:47.612Z,100731.19
2023-11-07T14:33:18.607Z,100731.88
2023-11-07T14:35:47.395Z,100721.72
2023-11-07T14:38:17.018Z,100683.50
2023-11-07T14:40:46.608Z,100711.97
2023-11-07T14:43:17.374Z,100700.13
2023-11-07T14:45:45.747Z,100712.66
2023-11-07T14:48:15.220Z,100706.16
2023-11-07T14:50:44.864Z,100709.34
2023-11-07T14:53:16.097Z,100702.56
2023-11-07T14:55:44.181Z,100701.34
2023-11-07T14:58:11.872Z,100695.31
2023-11-07T15:00:42.579Z,100691.50
2023-11-07T15:03:11.882Z,100697.22
2023-11-07T15:05:41.027Z,100706.56
2023-11-07T15:08:10.653Z,100709.81
2023-11-07T15:10:38.484Z,100703.47
2023-11-07T15:13:07.630Z,100718.13
2023-11-07T15:15:35.720Z,100712.00
2023-11-07T15:18:05.070Z,100724.59
2023-11-07T15:20:33.333Z,100731.53
2023-11-07T15:23:02.731Z,100735.09
2023-11-07T15:25:46.789Z,100726.25
2023-11-07T15:28:16.434Z,100730.69
2023-11-07T15:30:43.583Z,100730.88
2023-11-07T15:33:10.938Z,100728.25
2023-11-07T15:35:39.585Z,100731.47
2023-11-07T15:38:08.119Z,100730.97
2023-11-07T15:40:36.412Z,100735.53
2023-11-07T15:43:09.832Z,100738.88
2023-11-07T15:45:37.230Z,100744.72
2023-11-07T15:48:09.395Z,100735.47
2023-11-07T15:50:38.793Z,100713.69
2023-11-07T15:53:09.194Z,100726.88
2023-11-07T15:55:37.981Z,100721.50
2023-11-07T15:58:07.421Z,100720.47
2023-11-07T16:00:35.549Z,100703.88
2023-11-07T16:03:05.070Z,100698.41
2023-11-07T16:05:36.646Z,100700.78
2023-11-07T16:08:06.182Z,100717.06
2023-11-07T16:10:34.431Z,100719.75
2023-11-07T16:13:04.729Z,100712.22
2023-11-07T16:15:34.263Z,100710.72
2023-11-07T16:18:02.538Z,100697.50
2023-11-07T16:20:30.046Z,100692.53
2023-11-07T16:22:57.940Z,100693.25
2023-11-07T16:25:25.683Z,100681.91
2023-11-07T16:27:56.234Z,100663.72
2023-11-07T16:30:23.420Z,100670.59
2023-11-07T16:32:54.104Z,100683.84
2023-11-07T16:35:21.298Z,100665.28
2023-11-07T16:37:49.578Z,100667.25
2023-11-07T16:40:17.885Z,100670.97
2023-11-07T16:42:46.324Z,100673.63
2023-11-07T16:45:15.947Z,100669.94
2023-11-07T16:47:44.747Z,100651.00
2023-11-07T16:50:16.457Z,100662.06
2023-11-07T16:52:43.902Z,100667.78
2023-11-07T16:55:17.385Z,100671.13
2023-11-07T16:57:46.336Z,100656.91
2023-11-07T17:00:19.814Z,100667.78
2023-11-07T17:02:49.042Z,100664.25
2023-11-07T17:05:19.178Z,100671.66
2023-11-07T17:07:46.784Z,100677.84
2023-11-07T17:10:14.004Z,100690.22
2023-11-07T17:12:41.415Z,100686.91
2023-11-07T17:15:09.933Z,100691.94
2023-11-07T17:17:38.178Z,100675.56
2023-11-07T17:20:07.928Z,100685.41
2023-11-07T17:22:40.453Z,100679.53
2023-11-07T17:25:10.075Z,100676.22
2023-11-07T17:27:40.347Z,100679.38
2023-11-07T17:30:08.900Z,100596.44
2023-11-07T17:32:38.920Z,100659.16
2023-11-07T17:35:07.575Z,100604.13
2023-11-07T17:37:38.707Z,100646.91
2023-11-07T17:40:07.684Z,100674.00
2023-11-07T17:42:35.353Z,100665.31
2023-11-07T17:45:06.618Z,100661.47
2023-11-07T17:47:34.492Z,100655.28
2023-11-07T17:50:02.512Z,100646.22
2023-11-07T17:52:30.611Z,100634.69
2023-11-07T17:55:01.801Z,100628.84
2023-11-07T17:57:42.035Z,100620.97
2023-11-07T18:00:16.461Z,100586.19
2023-11-07T18:02:46.812Z,100609.59
2023-11-07T18:05:17.139Z,100608.09
2023-11-07T18:07:53.414Z,100600.75
2023-11-07T18:10:26.998Z,100608.28
2023-11-07T18:13:00.864Z,100603.47
2023-11-07T18:15:28.969Z,100590.41
2023-11-07T18:17:59.534Z,100605.66
2023-11-07T18:20:29.654Z,100600.78
2023-11-07T18:22:58.654Z,100590.06
2023-11-07T18:25:31.262Z,100595.56
2023-11-07T18:27:58.910Z,100586.34
2023-11-07T18:30:26.662Z,100548.91
2023-11-07T18:33:12.514Z,100570.44
2023-11-07T18:35:40.010Z,100554.53
2023-11-07T18:38:22.540Z,100558.38
2023-11-07T18:40:53.441Z,100523.78
2023-11-07T18:43:22.210Z,100549.38
2023-11-07T18:45:49.418Z,100546.38
2023-11-07T18:48:16.980Z,100558.75
2023-11-07T18:50:44.205Z,100561.59
2023-11-07T18:53:12.429Z,100562.13
2023-11-07T18:55:39.788Z,100565.66
2023-11-07T18:58:10.323Z,100557.31
2023-11-07T19:00:39.803Z,100562.69
2023-11-07T19:03:07.612Z,100560.00
2023-11-07T19:05:37.876Z,100559.47
2023-11-07T19:08:05.544Z,100550.91
2023-11-07T19:10:36.470Z,100522.00
2023-11-07T19:13:05.248Z,100556.09
2023-11-07T19:15:33.904Z,100542.88
2023-11-07T19:18:01.191Z,100549.56
2023-11-07T19:20:31.900Z,100544.91
2023-11-07T19:23:05.340Z,100527.69
2023-11-07T19:25:32.700Z,100511.66
2023-11-07T19:28:00.556Z,100518.06
2023-11-07T19:30:27.907Z,100515.19
2023-11-07T19:32:57.143Z,100495.59
2023-11-07T19:35:25.736Z,100513.03
2023-11-07T19:37:55.355Z,100513.03
2023-11-07T19:40:24.593Z,100514.03
2023-11-07T19:42:53.168Z,100512.69
2023-11-07T19:45:20.788Z,100526.72
2023-11-07T19:47:51.502Z,100519.38
2023-11-07T19:50:25.258Z,100512.19
2023-11-07T19:53:02.493Z,100514.88
2023-11-07T19:55:36.910Z,100504.00
2023-11-07T19:58:04.243Z,100506.31
2023-11-07T20:00:31.273Z,100509.53
2023-11-07T20:02:58.899Z,100498.81
2023-11-07T20:05:27.746Z,100498.97
2023-11-07T20:07:56.829Z,100497.28
2023-11-07T20:10:27.734Z,100491.94
2023-11-07T20:12:55.472Z,100496.13
2023-11-07T20:15:22.754Z,100488.09
2023-11-07T20:17:50.229Z,100489.44
2023-11-07T20:20:17.393Z,100478.41
2023-11-07T20:22:46.653Z,100480.91
2023-11-07T20:25:13.751Z,100461.00
2023-11-07T20:27:41.144Z,100465.03
2023-11-07T20:30:12.009Z,100451.81
2023-11-07T20:32:39.699Z,100441.78
2023-11-07T20:35:08.014Z,100451.66
2023-11-07T20:37:35.391Z,100458.00
2023-11-07T20:40:05.455Z,100453.81
2023-11-07T20:42:33.433Z,100461.50
2023-11-07T20:45:08.081Z,100463.03
2023-11-07T20:47:40.719Z,100461.34
2023-11-07T20:50:09.129Z,100465.22
2023-11-07T20:52:36.743Z,100469.72
2023-11-07T20:55:06.447Z,100464.34
2023-11-07T20:57:38.674Z,100453.34
2023-11-07T21:00:09.328Z,100463.19
2023-11-07T21:02:36.529Z,100460.19
2023-11-07T21:05:05.028Z,100463.69
2023-11-07T21:07:33.695Z,100489.09
2023-11-07T21:10:12.112Z,100448.66
2023-11-07T21:12:39.891Z,100472.56
2023-11-07T21:15:11.210Z,100488.94
2023-11-07T21:17:42.394Z,100490.41
2023-11-07T21:20:11.788Z,100480.75
2023-11-07T21:22:40.331Z,100481.41
2023-11-07T21:25:11.004Z,100485.59
2023-11-07T21:27:38.751Z,100488.44
2023-11-07T21:30:07.111Z,100479.72
2023-11-07T21:32:35.094Z,100478.00
2023-11-07T21:35:04.221Z,100487.53
2023-11-07T21:37:32.124Z,100482.03
2023-11-07T21:39:59.312Z,100496.19
2023-11-07T21:42:28.364Z,100491.03
2023-11-07T21:44:56.741Z,100481.19
2023-11-07T21:47:24.102Z,100499.88
2023-11-07T21:49:51.138Z,100493.19
2023-11-07T21:52:18.545Z,100510.41
2023-11-07T21:54:48.036Z,100514.09
2023-11-07T21:57:15.407Z,100524.31
2023-11-07T21:59:43.916Z,100516.81
2023-11-07T22:02:11.235Z,100522.84
2023-11-07T22:04:38.511Z,100535.09
2023-11-07T22:07:05.835Z,100525.19
2023-11-07T22:09:33.051Z,100526.56
2023-11-07T22:12:00.454Z,100529.41
2023-11-07T22:14:27.497Z,100527.75
2023-11-07T22:16:56.390Z,100526.56
2023-11-07T22:19:23.517Z,100520.72
2023-11-07T22:21:50.931Z,100534.13
2023-11-07T22:24:18.521Z,100530.44
2023-11-07T22:26:45.853Z,100526.09
2023-11-07T22:29:12.917Z,100524.09
2023-11-07T22:31:40.206Z,100520.56
2023-11-07T22:34:08.914Z,100526.06
2023-11-07T22:36:35.991Z,100533.94
2023-11-07T22:39:04.333Z,100536.94
2023-11-07T22:41:31.707Z,100529.59
2023-11-07T22:43:58.769Z,100522.41
2023-11-07T22:46:25.912Z,100524.22
2023-11-07T22:48:53.282Z,100518.88
2023-11-07T22:51:22.281Z,100519.72
2023-11-07T22:53:49.621Z,100512.88
2023-11-07T22:56:17.177Z,100512.72
2023-11-07T22:58:44.320Z,100507.69
2023-11-07T23:01:13.455Z,100507.03
2023-11-07T23:03:41.399Z,100512.72
2023-11-07T23:06:09.187Z,100498.34
2023-11-07T23:08:37.842Z,100497.50
2023-11-07T23:11:06.611Z,100499.69
2023-11-07T23:13:36.745Z,100497.00
2023-11-07T23:16:04.698Z,100467.41
2023-11-07T23:18:31.771Z,100474.28
2023-11-07T23:20:59.200Z,100483.94
2023-11-07T23:23:26.268Z,100461.25
2023-11-07T23:25:54.927Z,100478.63
2023-11-07T23:28:22.300Z,100479.78
2023-11-07T23:30:51.095Z,100479.63
2023-11-07T23:33:18.376Z,100482.97
2023-11-07T23:35:45.722Z,100486.50
2023-11-07T23:38:13.354Z,100472.44
2023-11-07T23:40:43.622Z,100476.81
2023-11-07T23:43:11.977Z,100486.50
2023-11-07T23:45:39.319Z,100475.97
2023-11-07T23:48:06.358Z,100484.31
2023-11-07T23:50:33.738Z,100486.00
2023-11-07T23:53:00.824Z,100486.66
2023-11-07T23:55:28.134Z,100502.53
2023-11-07T23:57:55.507Z,100477.63
